Time;durP1;ratioP1;P1;durP2;ratioP2;P2;SDS_P1;SDS_P2;PMS_P1;PMS_P2;Temp;Humidity;BMP_temperature;BMP_pressure;BME280_temperature;BME280_humidity;BME280_pressure;Samples;Min_cycle;Max_cycle;Signal;HPM_P1;HPM_P2
2021/12/14 00:01:00;;;;;;;12.62;8.65;;;;;;;4.29;65.72;101531.02;456002;114;922607;-73
2021/12/14 00:02:04;;;;;;;17.74;9.54;;;;;;;4.32;65.71;101532.55;456224;114;922617;-74
2021/12/14 00:03:09;;;;;;;17.34;9.52;;;;;;;4.34;65.69;101523.31;456901;115;922681;-73
2021/12/14 00:04:19;;;;;;;14.28;9.53;;;;;;;4.35;65.65;101519.62;456490;114;923090;-73
2021/12/14 00:05:25;;;;;;;15.49;9.15;;;;;;;4.37;65.67;101528.39;456486;114;922515;-73
2021/12/14 00:06:29;;;;;;;15.22;8.96;;;;;;;4.39;65.63;101525.55;456695;114;922634;-73
2021/12/14 00:07:33;;;;;;;13.09;9.55;;;;;;;4.41;65.47;101526.26;456783;113;922853;-73
2021/12/14 00:08:47;;;;;;;13.36;9.19;;;;;;;4.40;65.39;101525.41;456648;115;922664;-73
2021/12/14 00:09:43;;;;;;;12.81;9.24;;;;;;;4.39;65.39;101525.55;455185;114;930514;-73
2021/12/14 00:13:42;;;;;;;18.07;8.98;;;;;;;4.40;65.29;101532.66;456348;113;922606;-72
2021/12/14 00:15:50;;;;;;;12.18;8.90;;;;;;;4.38;65.39;101530.09;456432;116;923156;-72
2021/12/14 00:16:57;;;;;;;10.86;8.36;;;;;;;4.38;65.41;101535.50;456210;114;923138;-72
2021/12/14 00:18:04;;;;;;;13.09;8.28;;;;;;;4.38;65.38;101532.80;456203;114;922654;-73
2021/12/14 00:19:07;;;;;;;14.51;7.85;;;;;;;4.38;65.31;101535.50;455784;113;922527;-73
2021/12/14 00:20:19;;;;;;;15.07;7.66;;;;;;;4.38;65.36;101538.20;456600;116;923496;-72
2021/12/14 00:21:31;;;;;;;15.29;7.64;;;;;;;4.48;65.35;101538.98;472102;110;947227;-73
2021/12/14 00:24:06;;;;;;;10.66;7.66;;;;;;;4.37;65.27;101541.04;463647;113;922883;-72
2021/12/14 00:25:06;;;;;;;11.28;9.28;;;;;;;4.34;65.30;101528.71;458437;114;922585;-72
2021/12/14 00:26:11;;;;;;;12.32;8.13;;;;;;;4.34;65.38;101534.11;456739;113;922875;-73
2021/12/14 00:27:18;;;;;;;12.40;8.21;;;;;;;4.34;65.42;101533.26;457534;114;922668;-73
2021/12/14 00:28:27;;;;;;;14.43;8.50;;;;;;;4.33;65.40;101532.41;457715;114;922614;-73
2021/12/14 00:29:34;;;;;;;11.33;8.28;;;;;;;4.33;65.40;101534.25;458210;114;923020;-72
2021/12/14 00:30:39;;;;;;;12.54;8.27;;;;;;;4.34;65.35;101533.26;458484;114;922925;-74
2021/12/14 00:31:43;;;;;;;11.44;7.74;;;;;;;4.32;65.35;101535.25;457639;114;922527;-74
2021/12/14 00:32:47;;;;;;;10.95;7.66;;;;;;;4.31;65.36;101526.30;458407;114;923087;-73
2021/12/14 00:33:54;;;;;;;10.37;6.78;;;;;;;4.32;65.44;101527.15;459704;114;922688;-73
2021/12/14 00:34:59;;;;;;;10.12;8.19;;;;;;;4.33;65.38;101529.70;458336;113;922803;-73
2021/12/14 00:36:06;;;;;;;9.14;8.24;;;;;;;4.34;65.38;101530.56;456688;114;922732;-73
2021/12/14 00:37:29;;;;;;;10.92;7.85;;;;;;;4.31;65.34;101526.30;456336;114;922625;-72
2021/12/14 00:38:34;;;;;;;10.44;7.61;;;;;;;4.30;65.37;101529.17;457020;113;922630;-73
2021/12/14 00:39:38;;;;;;;8.65;7.14;;;;;;;4.29;65.40;101525.62;457036;113;922713;-72
2021/12/14 00:40:45;;;;;;;10.25;7.98;;;;;;;4.29;65.43;101524.77;456422;114;922665;-73
2021/12/14 00:41:49;;;;;;;10.02;7.86;;;;;;;4.28;65.45;101521.21;456199;114;922890;-72
2021/12/14 00:42:54;;;;;;;10.56;7.00;;;;;;;4.29;65.48;101514.81;456833;114;922700;-72
2021/12/14 00:43:59;;;;;;;11.29;7.63;;;;;;;4.29;65.49;101514.81;456626;114;930770;-73
2021/12/14 00:45:03;;;;;;;18.69;8.28;;;;;;;4.30;65.46;101512.97;456861;114;922979;-73
2021/12/14 00:46:08;;;;;;;9.47;8.07;;;;;;;4.30;65.47;101504.87;457180;114;930642;-73
2021/12/14 00:47:12;;;;;;;10.87;7.77;;;;;;;4.30;65.53;101508.39;457644;113;922628;-73
2021/12/14 00:48:17;;;;;;;15.02;8.15;;;;;;;4.31;65.48;101491.20;449025;116;923103;-72
2021/12/14 00:49:21;;;;;;;10.34;7.68;;;;;;;4.30;65.53;101494.08;448522;114;922705;-72
2021/12/14 00:50:26;;;;;;;10.62;7.62;;;;;;;4.31;65.59;101493.05;458441;114;923055;-73
2021/12/14 00:51:30;;;;;;;13.99;7.76;;;;;;;4.31;65.55;101498.45;458557;114;922738;-73
2021/12/14 00:52:34;;;;;;;10.25;7.55;;;;;;;4.31;65.54;101495.75;457407;114;922952;-72
2021/12/14 00:53:38;;;;;;;9.94;8.10;;;;;;;4.30;65.47;101497.59;457968;114;930652;-73
2021/12/14 00:54:42;;;;;;;12.12;7.99;;;;;;;4.31;65.61;101495.75;458667;114;922613;-73
2021/12/14 00:55:48;;;;;;;12.49;8.18;;;;;;;4.32;65.63;101492.05;458140;114;930402;-72
2021/12/14 00:56:52;;;;;;;17.44;8.33;;;;;;;4.32;65.62;101492.91;458111;113;930196;-72
2021/12/14 00:57:56;;;;;;;14.30;8.92;;;;;;;4.34;65.54;101484.66;456345;114;922676;-72
2021/12/14 00:59:04;;;;;;;13.68;8.74;;;;;;;4.33;65.52;101486.51;457009;114;922673;-72
2021/12/14 01:00:11;;;;;;;11.66;8.80;;;;;;;4.33;65.53;101480.26;457007;114;922604;-72
2021/12/14 01:01:21;;;;;;;9.67;8.58;;;;;;;4.32;65.53;101484.80;456742;114;922848;-73
2021/12/14 01:02:25;;;;;;;13.86;9.07;;;;;;;4.31;65.47;101487.65;456520;114;922795;-73
2021/12/14 01:03:32;;;;;;;13.99;8.67;;;;;;;4.28;65.45;101487.97;457238;114;922630;-73
2021/12/14 01:04:42;;;;;;;11.54;8.22;;;;;;;4.26;65.53;101487.26;457451;114;922963;-73
2021/12/14 01:05:48;;;;;;;9.96;8.52;;;;;;;4.25;65.62;101485.55;453263;114;922688;-72
2021/12/14 01:06:52;;;;;;;10.08;8.23;;;;;;;4.26;65.70;101490.81;456751;114;922533;-73
2021/12/14 01:07:56;;;;;;;13.09;8.14;;;;;;;4.28;65.72;101491.52;457321;114;922631;-74
2021/12/14 01:09:02;;;;;;;14.04;8.87;;;;;;;4.29;65.68;101503.17;458039;114;922689;-72
2021/12/14 01:10:09;;;;;;;10.04;8.33;;;;;;;4.30;65.68;101492.20;457554;114;922966;-72
2021/12/14 01:11:21;;;;;;;9.28;7.76;;;;;;;4.30;65.61;101500.30;456416;114;923028;-73
2021/12/14 01:12:39;;;;;;;16.16;8.60;;;;;;;4.31;65.61;101491.20;458631;114;922554;-72
2021/12/14 01:13:43;;;;;;;14.38;8.33;;;;;;;4.32;65.66;101490.20;456743;114;922954;-74
2021/12/14 01:14:59;;;;;;;14.86;8.79;;;;;;;4.34;65.68;101493.61;457606;114;922547;-73
2021/12/14 01:16:13;;;;;;;12.33;8.52;;;;;;;4.36;65.69;101485.34;458278;114;923065;-72
2021/12/14 01:17:24;;;;;;;10.71;8.62;;;;;;;4.36;65.61;101483.48;455502;114;922637;-73
2021/12/14 01:18:35;;;;;;;15.23;8.47;;;;;;;4.36;65.65;101475.39;457290;114;922949;-73
2021/12/14 01:19:38;;;;;;;13.30;9.44;;;;;;;4.35;65.59;101476.42;456745;114;923013;-72
2021/12/14 01:20:45;;;;;;;10.73;9.58;;;;;;;4.33;65.46;101475.71;456095;114;922758;-73
2021/12/14 01:23:02;;;;;;;15.04;10.19;;;;;;;4.29;65.61;101470.77;454974;114;923111;-72
2021/12/14 01:24:09;;;;;;;13.48;10.17;;;;;;;4.28;65.64;101460.97;445472;118;922745;-73
2021/12/14 01:25:21;;;;;;;14.02;10.02;;;;;;;4.27;65.68;101457.42;439571;118;922797;-73
2021/12/14 01:26:26;;;;;;;12.56;10.89;;;;;;;4.27;65.74;101462.82;438490;119;922683;-73
2021/12/14 01:27:34;;;;;;;16.81;10.94;;;;;;;4.27;65.73;101460.12;438427;119;922827;-73
2021/12/14 01:28:46;;;;;;;16.73;11.06;;;;;;;4.36;65.74;101453.80;470426;110;947272;-73
2021/12/14 01:29:53;;;;;;;17.23;10.91;;;;;;;4.25;65.72;101459.41;460355;112;923221;-73
2021/12/14 01:31:16;;;;;;;13.98;11.62;;;;;;;4.26;65.73;101460.27;458254;113;922639;-73
2021/12/14 01:32:16;;;;;;;16.45;10.40;;;;;;;4.26;65.73;101454.87;457854;113;922597;-73
2021/12/14 01:33:22;;;;;;;13.78;9.45;;;;;;;4.26;65.73;101450.31;459578;113;923596;-72
2021/12/14 01:34:30;;;;;;;12.73;8.42;;;;;;;4.25;65.73;101454.02;458182;113;923187;-73
2021/12/14 01:35:36;;;;;;;10.76;9.07;;;;;;;4.24;65.81;101455.04;458339;113;923349;-73
2021/12/14 01:36:44;;;;;;;10.86;8.94;;;;;;;4.24;65.83;101457.73;458650;113;923151;-73
2021/12/14 01:38:00;;;;;;;11.58;8.32;;;;;;;4.25;65.86;101454.02;456592;113;922676;-72
2021/12/14 01:40:29;;;;;;;18.63;8.31;;;;;;;4.23;65.78;101456.03;434965;119;923114;-72
2021/12/14 01:41:23;;;;;;;13.16;8.25;;;;;;;4.23;65.79;101460.58;443842;113;923117;-73
2021/12/14 01:42:29;;;;;;;9.93;8.26;;;;;;;4.23;65.84;101457.89;458172;113;922634;-73
2021/12/14 01:43:39;;;;;;;10.79;8.93;;;;;;;4.22;65.87;101454.33;458640;113;922575;-73
2021/12/14 01:44:51;;;;;;;10.48;8.47;;;;;;;4.22;65.84;101453.48;457090;113;923070;-73
2021/12/14 01:45:57;;;;;;;12.78;8.69;;;;;;;4.20;65.82;101454.47;457569;113;922610;-72
2021/12/14 01:47:04;;;;;;;10.04;8.84;;;;;;;4.19;65.87;101458.17;450030;116;922882;-73
2021/12/14 01:48:16;;;;;;;12.81;9.24;;;;;;;4.19;65.94;101457.31;430915;120;923221;-73
2021/12/14 01:49:23;;;;;;;15.87;8.92;;;;;;;4.19;66.00;101454.63;452875;113;922688;-73
2021/12/14 01:50:49;;;;;;;11.46;9.88;;;;;;;4.20;66.05;101445.52;460994;113;922725;-73
2021/12/14 01:52:03;;;;;;;15.72;10.29;;;;;;;4.22;66.04;101448.08;439918;118;923488;-73
2021/12/14 01:53:15;;;;;;;13.08;10.08;;;;;;;4.32;66.05;101452.41;469611;110;947192;-73
2021/12/14 01:54:22;;;;;;;12.37;9.99;;;;;;;4.22;66.05;101458.88;467193;110;923059;-74
2021/12/14 01:55:29;;;;;;;15.53;10.32;;;;;;;4.24;66.05;101464.98;459184;111;922874;-72
2021/12/14 01:56:34;;;;;;;15.31;9.92;;;;;;;4.24;66.00;101464.98;461400;111;922908;-72
2021/12/14 01:57:38;;;;;;;13.69;9.39;;;;;;;4.23;65.94;101461.44;461866;111;923001;-72
2021/12/14 01:58:48;;;;;;;12.00;8.92;;;;;;;4.22;65.92;101457.03;462525;111;922840;-73
2021/12/14 01:59:56;;;;;;;14.08;8.54;;;;;;;4.21;65.96;101452.62;459576;111;922768;-73
2021/12/14 02:01:04;;;;;;;9.18;8.11;;;;;;;4.20;65.96;101440.98;460586;112;922643;-72
2021/12/14 02:03:29;;;;;;;12.66;8.26;;;;;;;4.20;66.06;101430.19;461513;111;922891;-72
2021/12/14 02:04:32;;;;;;;12.74;9.27;;;;;;;4.22;66.12;101431.89;460862;112;922602;-72
2021/12/14 02:05:42;;;;;;;12.05;8.66;;;;;;;4.23;66.06;101430.89;460357;112;923012;-72
2021/12/14 02:06:58;;;;;;;12.52;8.34;;;;;;;4.21;66.03;101425.64;460233;111;930440;-73
2021/12/14 02:08:05;;;;;;;12.00;8.48;;;;;;;4.21;66.04;101422.94;460656;111;922842;-72
2021/12/14 02:09:15;;;;;;;9.90;8.73;;;;;;;4.19;66.10;101427.63;458379;111;923055;-72
2021/12/14 02:10:37;;;;;;;12.22;9.18;;;;;;;4.20;66.17;101434.73;459542;112;923003;-73
2021/12/14 02:11:44;;;;;;;13.86;9.49;;;;;;;4.20;66.15;101432.03;460793;111;922780;-71
2021/12/14 02:12:48;;;;;;;13.16;8.58;;;;;;;4.19;66.04;101428.48;459684;112;923015;-73
2021/12/14 02:13:54;;;;;;;11.31;8.65;;;;;;;4.17;66.11;101435.91;459584;111;922664;-73
2021/12/14 02:15:11;;;;;;;13.20;9.28;;;;;;;4.17;66.14;101440.45;461480;111;931198;-71
2021/12/14 02:16:18;;;;;;;14.38;10.02;;;;;;;4.15;66.24;101431.64;460924;112;922705;-72
2021/12/14 02:17:23;;;;;;;9.67;8.56;;;;;;;4.15;66.25;101442.44;459800;111;923533;-72
2021/12/14 02:18:28;;;;;;;12.54;9.24;;;;;;;4.13;66.22;101450.70;461301;111;922775;-73
2021/12/14 02:19:32;;;;;;;12.70;8.63;;;;;;;4.12;66.22;101453.55;452992;114;930714;-72
2021/12/14 02:20:38;;;;;;;12.19;9.04;;;;;;;4.10;66.22;101447.45;453217;114;923154;-73
2021/12/14 02:21:45;;;;;;;11.87;8.73;;;;;;;4.06;66.22;101455.01;461371;112;922547;-72
2021/12/14 02:22:49;;;;;;;10.18;8.39;;;;;;;4.06;66.31;101451.45;452995;113;923179;-71
2021/12/14 02:23:55;;;;;;;12.61;9.16;;;;;;;4.06;66.35;101451.45;453132;113;922808;-72
2021/12/14 02:24:59;;;;;;;14.99;9.99;;;;;;;4.05;66.38;101441.66;461598;112;930532;-72
2021/12/14 02:26:06;;;;;;;14.08;8.84;;;;;;;4.04;66.42;101445.35;460623;111;922627;-72
2021/12/14 02:27:10;;;;;;;10.73;8.68;;;;;;;4.05;66.51;101447.91;458629;114;923484;-72
2021/12/14 02:28:17;;;;;;;13.34;7.73;;;;;;;4.06;66.56;101455.01;460359;111;922750;-72
2021/12/14 02:29:25;;;;;;;11.19;8.79;;;;;;;4.08;66.55;101457.56;459321;111;930179;-73
2021/12/14 02:30:31;;;;;;;13.12;8.82;;;;;;;4.08;66.60;101471.05;460382;111;923323;-72
2021/12/14 02:31:37;;;;;;;14.47;9.40;;;;;;;4.10;66.65;101472.59;458431;112;922607;-72
2021/12/14 02:32:43;;;;;;;13.44;9.05;;;;;;;4.12;66.55;101475.14;460123;111;922620;-72
2021/12/14 02:33:49;;;;;;;14.69;8.56;;;;;;;4.14;66.68;101468.58;462273;112;922609;-72
2021/12/14 02:35:00;;;;;;;11.39;8.59;;;;;;;4.15;66.63;101485.63;451323;113;922667;-72
2021/12/14 02:36:08;;;;;;;12.07;8.49;;;;;;;4.17;66.65;101478.23;456835;112;922682;-72
2021/12/14 02:37:13;;;;;;;13.21;8.67;;;;;;;4.19;66.67;101476.21;460792;111;922527;-72
2021/12/14 02:38:18;;;;;;;10.03;8.59;;;;;;;4.21;66.60;101466.12;462227;111;923700;-72
2021/12/14 02:39:46;;;;;;;12.44;8.11;;;;;;;4.23;66.61;101465.98;461357;111;930534;-72
2021/12/14 02:41:58;;;;;;;13.41;9.65;;;;;;;4.25;66.51;101464.81;460274;111;922642;-72
2021/12/14 02:43:03;;;;;;;11.29;8.33;;;;;;;4.26;66.51;101466.52;460732;111;922796;-72
2021/12/14 02:44:08;;;;;;;12.93;9.52;;;;;;;4.28;66.44;101466.38;452253;115;922759;-72
2021/12/14 02:45:13;;;;;;;12.59;8.96;;;;;;;4.27;66.45;101470.92;454253;113;923000;-72
2021/12/14 02:46:32;;;;;;;12.55;9.01;;;;;;;4.28;66.45;101467.22;460798;111;922556;-72
2021/12/14 02:47:36;;;;;;;21.12;9.46;;;;;;;4.28;66.44;101467.22;452308;114;922963;-72
2021/12/14 02:48:42;;;;;;;12.63;9.29;;;;;;;4.29;66.40;101466.23;452528;113;922806;-72
2021/12/14 02:49:48;;;;;;;14.81;9.90;;;;;;;4.30;66.43;101478.70;460213;112;930611;-72
2021/12/14 02:50:51;;;;;;;14.77;8.86;;;;;;;4.32;66.41;101467.75;462094;111;922891;-72
2021/12/14 02:51:58;;;;;;;13.16;9.01;;;;;;;4.32;66.40;101465.05;459532;111;922659;-72
2021/12/14 02:53:02;;;;;;;12.58;8.71;;;;;;;4.33;66.40;101464.91;458293;114;930699;-72
2021/12/14 02:54:12;;;;;;;12.80;8.49;;;;;;;4.34;66.37;101455.81;451551;115;922821;-70
2021/12/14 02:55:20;;;;;;;14.44;9.02;;;;;;;4.36;66.38;101459.19;452332;114;922634;-72
2021/12/14 02:56:27;;;;;;;13.15;8.71;;;;;;;4.38;66.31;101451.80;458455;113;922551;-72
2021/12/14 02:57:34;;;;;;;9.37;8.08;;;;;;;4.41;66.32;101439.86;456639;113;922761;-72
2021/12/14 02:58:37;;;;;;;10.81;8.45;;;;;;;4.42;66.21;101439.68;458115;112;922896;-72
2021/12/14 02:59:43;;;;;;;13.62;9.28;;;;;;;4.43;66.15;101443.23;458930;113;922649;-73
2021/12/14 03:00:50;;;;;;;9.66;8.31;;;;;;;4.44;66.13;101439.53;458563;113;930430;-71
2021/12/14 03:01:57;;;;;;;11.32;8.32;;;;;;;4.45;66.08;101443.94;449843;116;922643;-72
2021/12/14 03:03:03;;;;;;;9.93;8.35;;;;;;;4.44;66.02;101443.09;450739;114;922737;-72
2021/12/14 03:04:08;;;;;;;14.43;8.61;;;;;;;4.44;66.02;101453.03;457105;113;922632;-70
2021/12/14 03:05:22;;;;;;;11.19;9.70;;;;;;;4.44;66.04;101455.73;458680;112;922629;-71
2021/12/14 03:06:28;;;;;;;10.24;8.56;;;;;;;4.42;65.98;101447.78;457225;113;923248;-71
2021/12/14 03:07:35;;;;;;;11.00;8.64;;;;;;;4.42;65.95;101453.18;457458;112;923283;-70
2021/12/14 03:08:46;;;;;;;12.09;8.64;;;;;;;4.42;65.95;101445.08;458689;112;923782;-73
2021/12/14 03:11:10;;;;;;;11.78;8.96;;;;;;;4.41;65.93;101446.08;458851;113;923310;-73
2021/12/14 03:12:12;;;;;;;14.50;8.83;;;;;;;4.41;65.96;101450.66;458698;113;923183;-72
2021/12/14 03:13:15;;;;;;;15.83;8.62;;;;;;;4.40;65.92;101454.35;459495;113;922900;-72
2021/12/14 03:14:19;;;;;;;10.11;8.78;;;;;;;4.40;65.96;101443.55;458937;113;922568;-72
2021/12/14 03:15:29;;;;;;;10.42;8.28;;;;;;;4.38;66.02;101438.30;458776;112;922989;-73
2021/12/14 03:16:34;;;;;;;11.28;8.56;;;;;;;4.39;66.05;101441.85;458534;113;922755;-73
2021/12/14 03:17:42;;;;;;;13.03;8.46;;;;;;;4.40;66.04;101439.00;458401;112;922936;-72
2021/12/14 03:18:49;;;;;;;10.33;8.02;;;;;;;4.39;65.96;101431.91;456757;114;922884;-73
2021/12/14 03:19:57;;;;;;;13.84;9.18;;;;;;;4.38;65.98;101430.20;458727;112;923146;-72
2021/12/14 03:21:15;;;;;;;10.28;8.41;;;;;;;4.37;66.00;101428.50;459110;112;922654;-72
2021/12/14 03:22:22;;;;;;;8.56;7.71;;;;;;;4.38;66.07;101432.05;458202;112;922636;-72
2021/12/14 03:23:36;;;;;;;11.16;8.97;;;;;;;4.38;66.03;101445.55;456038;114;922737;-72
2021/12/14 03:24:39;;;;;;;9.88;8.79;;;;;;;4.38;66.07;101435.59;457651;112;922467;-74
2021/12/14 03:25:46;;;;;;;14.16;9.14;;;;;;;4.36;66.09;101429.49;457400;113;922953;-74
2021/12/14 03:26:53;;;;;;;9.01;8.01;;;;;;;4.37;66.13;101435.74;458356;112;922603;-72
2021/12/14 03:27:58;;;;;;;12.92;8.60;;;;;;;4.37;66.15;101428.50;457736;113;922952;-73
2021/12/14 03:29:07;;;;;;;13.32;7.89;;;;;;;4.39;66.20;101429.20;457055;112;922598;-73
2021/12/14 03:30:32;;;;;;;8.80;7.76;;;;;;;4.41;66.20;101427.17;459667;112;922824;-71
2021/12/14 03:31:41;;;;;;;20.84;8.98;;;;;;;4.45;66.04;101427.73;457542;112;922900;-74
2021/12/14 03:32:46;;;;;;;19.29;8.79;;;;;;;4.45;66.04;101427.73;450136;114;922719;-73
2021/12/14 03:33:56;;;;;;;10.87;8.91;;;;;;;4.45;66.12;101433.98;450562;114;923081;-72
2021/12/14 03:35:00;;;;;;;9.82;7.99;;;;;;;4.47;66.13;101433.81;459315;112;930692;-72
2021/12/14 03:36:12;;;;;;;9.66;8.53;;;;;;;4.48;66.17;101436.36;457845;113;922755;-72
2021/12/14 03:37:21;;;;;;;11.42;8.51;;;;;;;4.51;66.07;101446.87;459296;112;923085;-71
2021/12/14 03:38:33;;;;;;;12.04;9.06;;;;;;;4.52;65.98;101447.73;459633;112;922751;-72
2021/12/14 03:39:49;;;;;;;11.68;8.83;;;;;;;4.64;66.03;101443.77;470072;110;947871;-72
2021/12/14 03:41:02;;;;;;;12.64;7.94;;;;;;;4.53;66.06;101450.25;463815;113;922812;-72
2021/12/14 03:42:11;;;;;;;9.80;8.45;;;;;;;4.54;66.08;101443.00;440056;118;922663;-73
2021/12/14 03:43:14;;;;;;;16.32;8.73;;;;;;;4.55;66.01;101445.55;455046;113;922754;-71
2021/12/14 03:44:27;;;;;;;10.43;8.61;;;;;;;4.56;65.95;101443.70;463916;113;923175;-72
2021/12/14 03:45:31;;;;;;;13.68;7.83;;;;;;;4.57;65.94;101445.41;463421;113;930618;-72
2021/12/14 03:46:38;;;;;;;15.76;8.59;;;;;;;4.57;65.92;101448.11;463845;113;922886;-73
2021/12/14 03:47:46;;;;;;;11.47;7.92;;;;;;;4.57;65.91;101438.16;463236;113;930554;-73
2021/12/14 03:48:49;;;;;;;10.72;7.92;;;;;;;4.58;65.91;101441.68;454200;116;922808;-71
2021/12/14 03:49:57;;;;;;;11.68;9.19;;;;;;;4.60;65.93;101437.83;454526;113;922808;-72
2021/12/14 03:51:02;;;;;;;10.59;8.75;;;;;;;4.61;65.96;101442.23;462851;113;922674;-72
2021/12/14 03:52:11;;;;;;;12.78;8.33;;;;;;;4.63;65.92;101446.64;463067;113;922713;-73
2021/12/14 03:53:18;;;;;;;10.36;8.50;;;;;;;4.64;65.91;101441.06;464348;112;922562;-72
2021/12/14 03:54:23;;;;;;;13.04;8.38;;;;;;;4.66;65.83;101447.17;463507;113;922606;-72
2021/12/14 03:55:36;;;;;;;9.68;8.18;;;;;;;4.67;65.76;101442.62;462780;113;922914;-72
2021/12/14 03:56:40;;;;;;;13.82;9.69;;;;;;;4.69;65.50;101445.99;463841;113;922739;-72
2021/12/14 03:57:43;;;;;;;13.42;8.94;;;;;;;4.66;65.59;101443.62;463053;113;923150;-74
2021/12/14 03:58:48;;;;;;;11.03;8.29;;;;;;;4.63;65.63;101440.21;463390;113;930242;-72
2021/12/14 03:59:53;;;;;;;13.61;9.18;;;;;;;4.62;65.70;101434.98;463237;113;923196;-74
2021/12/14 04:01:01;;;;;;;9.16;8.22;;;;;;;4.63;65.85;101433.98;464122;112;922889;-71
2021/12/14 04:02:10;;;;;;;14.24;8.19;;;;;;;4.64;65.84;101435.66;464145;113;922685;-72
2021/12/14 04:03:16;;;;;;;9.44;7.62;;;;;;;4.67;65.85;101437.22;454105;116;922874;-71
2021/12/14 04:04:28;;;;;;;9.32;8.29;;;;;;;4.68;65.81;101431.67;450520;113;922706;-73
2021/12/14 04:05:33;;;;;;;11.58;7.89;;;;;;;4.70;65.80;101434.19;455507;114;925206;-72
2021/12/14 04:06:39;;;;;;;14.41;8.03;;;;;;;4.72;65.76;101429.49;449550;116;923469;-72
2021/12/14 04:07:44;;;;;;;9.99;7.86;;;;;;;4.72;65.62;101426.79;455509;113;923047;-72
2021/12/14 04:08:50;;;;;;;10.46;7.84;;;;;;;4.72;65.59;101429.49;461900;113;930561;-72
2021/12/14 04:09:54;;;;;;;10.81;7.86;;;;;;;4.71;65.62;101423.23;453590;114;923288;-72
2021/12/14 04:11:00;;;;;;;9.58;7.77;;;;;;;4.70;65.53;101424.23;453445;114;922717;-74
2021/12/14 04:12:10;;;;;;;11.15;7.16;;;;;;;4.69;65.59;101418.98;463844;113;922782;-73
2021/12/14 04:13:19;;;;;;;11.93;7.63;;;;;;;4.70;65.65;101420.69;464017;113;922687;-72
2021/12/14 04:14:31;;;;;;;11.18;6.67;;;;;;;4.83;65.66;101410.33;470880;110;947028;-71
2021/12/14 04:15:35;;;;;;;8.56;6.28;;;;;;;4.72;65.64;101421.39;464677;112;922686;-73
2021/12/14 04:16:42;;;;;;;8.57;6.49;;;;;;;4.72;65.61;101422.23;465518;112;922662;-72
2021/12/14 04:17:47;;;;;;;13.60;6.97;;;;;;;4.74;65.62;101422.09;464350;112;922583;-72
2021/12/14 04:18:55;;;;;;;10.47;6.19;;;;;;;4.74;65.64;101416.69;464012;111;922675;-70
2021/12/14 04:19:59;;;;;;;14.95;6.37;;;;;;;4.75;65.64;101405.70;458047;114;922803;-72
2021/12/14 04:21:05;;;;;;;6.64;5.43;;;;;;;4.76;65.54;101406.55;457832;112;922620;-73
2021/12/14 04:22:13;;;;;;;9.54;5.22;;;;;;;4.75;65.47;101413.80;465144;112;922580;-72
2021/12/14 04:23:20;;;;;;;7.49;5.46;;;;;;;4.75;65.39;101404.85;465246;112;922646;-72
2021/12/14 04:24:29;;;;;;;8.17;5.91;;;;;;;4.73;65.37;101418.54;447446;117;922571;-72
2021/12/14 04:25:34;;;;;;;8.96;6.09;;;;;;;4.70;65.42;101418.83;457675;112;922764;-71
2021/12/14 04:26:44;;;;;;;10.35;6.32;;;;;;;4.67;65.43;101419.16;465577;112;923575;-72
2021/12/14 04:27:45;;;;;;;9.44;6.54;;;;;;;4.66;65.49;101408.50;465198;112;922674;-72
2021/12/14 04:28:52;;;;;;;8.16;5.03;;;;;;;4.66;65.55;101413.91;466197;111;922571;-71
2021/12/14 04:29:58;;;;;;;9.09;5.79;;;;;;;4.65;65.55;101406.80;465467;112;930671;-73
2021/12/14 04:31:02;;;;;;;9.61;7.07;;;;;;;4.63;65.53;101410.50;466305;112;922637;-72
2021/12/14 04:32:09;;;;;;;10.20;6.09;;;;;;;4.62;65.61;101407.98;466337;111;922642;-72
2021/12/14 04:33:16;;;;;;;10.37;6.53;;;;;;;4.63;65.68;101411.53;457168;113;922768;-72
2021/12/14 04:34:21;;;;;;;8.89;6.60;;;;;;;4.63;65.68;101415.08;457075;112;923252;-71
2021/12/14 04:35:25;;;;;;;9.46;6.43;;;;;;;4.63;65.67;101415.91;464996;112;922517;-70
2021/12/14 04:36:30;;;;;;;13.08;6.84;;;;;;;4.63;65.70;101410.50;456448;114;923176;-70
2021/12/14 04:37:39;;;;;;;9.21;6.57;;;;;;;4.65;65.73;101407.65;455689;113;922949;-71
2021/12/14 04:38:52;;;;;;;8.54;5.82;;;;;;;4.66;65.70;101409.36;464367;112;923071;-71
2021/12/14 04:40:09;;;;;;;9.15;6.57;;;;;;;4.66;65.68;101412.05;463023;111;922676;-72
2021/12/14 04:52:15;;;;;;;8.96;6.54;;;;;;;4.53;65.63;101396.23;465765;112;922698;-72
2021/12/14 04:53:34;;;;;;;7.75;7.01;;;;;;;4.51;65.73;101395.56;464796;112;922555;-72
2021/12/14 04:54:41;;;;;;;10.07;7.09;;;;;;;4.50;65.77;101399.27;464846;112;922577;-72
2021/12/14 04:55:46;;;;;;;8.03;6.77;;;;;;;4.49;65.85;101392.16;463813;111;922928;-72
2021/12/14 04:56:50;;;;;;;12.68;6.58;;;;;;;4.49;65.87;101392.16;463940;112;922876;-72
2021/12/14 04:57:53;;;;;;;7.89;6.61;;;;;;;4.50;65.91;101393.86;464335;112;922949;-72
2021/12/14 04:59:06;;;;;;;7.29;6.06;;;;;;;4.50;65.79;101391.16;465166;111;923074;-72
2021/12/14 05:00:25;;;;;;;10.18;7.04;;;;;;;4.50;65.83;101399.27;464304;112;922657;-70
2021/12/14 05:01:33;;;;;;;6.93;6.07;;;;;;;4.50;65.84;101401.11;463725;112;923112;-73
2021/12/14 05:02:38;;;;;;;10.94;6.63;;;;;;;4.50;65.86;101404.66;455861;114;922673;-73
2021/12/14 05:03:55;;;;;;;9.92;6.48;;;;;;;4.52;65.94;101404.52;458529;112;922643;-72
2021/12/14 05:05:00;;;;;;;9.54;6.56;;;;;;;4.52;65.91;101405.34;466530;112;922686;-71
2021/12/14 05:06:18;;;;;;;7.79;6.88;;;;;;;4.52;65.91;101402.64;466323;112;922486;-71
2021/12/14 05:09:47;;;;;;;13.24;7.29;;;;;;;4.47;65.92;101404.96;466497;112;923131;-72
2021/12/14 05:10:58;;;;;;;8.38;6.67;;;;;;;4.47;66.03;101413.06;466262;112;922638;-73
2021/12/14 05:12:08;;;;;;;12.12;7.54;;;;;;;4.48;66.08;101406.66;466290;112;922744;-71
2021/12/14 05:13:17;;;;;;;10.09;7.21;;;;;;;4.48;66.08;101406.66;466394;111;923317;-73
2021/12/14 05:14:20;;;;;;;9.56;6.63;;;;;;;4.50;66.08;101414.62;466465;112;923380;-72
2021/12/14 05:15:24;;;;;;;12.01;8.12;;;;;;;4.51;66.03;101410.92;466392;111;922636;-71
2021/12/14 05:16:30;;;;;;;9.40;7.30;;;;;;;4.51;66.09;101406.37;464057;112;930566;-72
2021/12/14 05:17:36;;;;;;;10.56;8.32;;;;;;;4.54;66.04;101413.30;464820;112;923810;-70
2021/12/14 05:18:49;;;;;;;10.74;7.12;;;;;;;4.53;66.07;101415.14;464332;112;923511;-73
2021/12/14 05:19:56;;;;;;;10.51;7.12;;;;;;;4.55;66.09;101412.30;463590;112;923088;-72
2021/12/14 05:21:00;;;;;;;9.89;6.86;;;;;;;4.55;66.12;101413.15;453281;114;922704;-71
2021/12/14 05:22:11;;;;;;;8.02;6.57;;;;;;;4.55;66.05;101405.05;454978;112;922797;-72
2021/12/14 05:23:21;;;;;;;9.52;6.61;;;;;;;4.56;66.05;101409.45;464046;112;922505;-73
2021/12/14 05:24:27;;;;;;;8.58;7.68;;;;;;;4.56;66.10;101412.15;465215;112;922579;-72
2021/12/14 05:25:32;;;;;;;9.73;6.96;;;;;;;4.58;66.12;101404.72;465731;112;922863;-70
2021/12/14 05:26:42;;;;;;;9.88;6.66;;;;;;;4.58;66.07;101412.82;465229;112;922638;-72
2021/12/14 05:27:49;;;;;;;7.43;6.29;;;;;;;4.59;66.03;101419.08;457077;114;923693;-72
2021/12/14 05:28:53;;;;;;;10.85;6.63;;;;;;;4.58;65.99;101409.27;456463;114;923572;-73
2021/12/14 05:30:12;;;;;;;8.41;5.59;;;;;;;4.57;66.03;101416.55;456126;114;922926;-73
2021/12/14 05:31:24;;;;;;;8.88;5.98;;;;;;;4.57;66.05;101411.16;436856;112;930784;-73
2021/12/14 05:32:28;;;;;;;12.44;6.76;;;;;;;4.56;66.01;101414.84;465562;111;922556;-74
2021/12/14 05:33:34;;;;;;;8.49;6.74;;;;;;;4.57;66.06;101423.80;465256;112;922945;-72
2021/12/14 05:34:39;;;;;;;8.99;6.68;;;;;;;4.58;66.09;101422.77;463388;112;922869;-72
2021/12/14 05:35:46;;;;;;;8.11;6.99;;;;;;;4.57;66.03;101418.41;464135;112;922733;-72
2021/12/14 05:36:51;;;;;;;10.27;7.45;;;;;;;4.57;66.02;101421.10;464427;112;922969;-72